createdAt,value
2023-09-16T00:03:59.207Z,99286.02
2023-09-16T00:09:01.357Z,99284.55
2023-09-16T00:14:03.391Z,99284.59
2023-09-16T00:19:06.110Z,99281.35
2023-09-16T00:24:10.884Z,99275.82
2023-09-16T00:29:13.203Z,99272.98
2023-09-16T00:34:15.145Z,99268.67
2023-09-16T00:39:17.091Z,99269.75
2023-09-16T00:44:18.938Z,99266.73
2023-09-16T00:49:20.907Z,99270.71
2023-09-16T00:54:22.864Z,99268.21
2023-09-16T00:59:27.136Z,99267.86
2023-09-16T01:04:29.063Z,99271.95
2023-09-16T01:09:31.230Z,99268.63
2023-09-16T01:14:34.782Z,99269.84
2023-09-16T01:19:59.279Z,99265.84
2023-09-16T01:25:07.922Z,99259.75
2023-09-16T01:30:10.913Z,99260.98
2023-09-16T01:35:16.064Z,99255.48
2023-09-16T01:40:23.344Z,99257.60
2023-09-16T01:45:25.286Z,99262.04
2023-09-16T01:50:27.104Z,99264.86
2023-09-16T01:55:32.189Z,99267.88
2023-09-16T02:00:34.035Z,99268.98
2023-09-16T02:05:35.936Z,99270.66
2023-09-16T02:10:38.086Z,99266.77
2023-09-16T02:15:40.020Z,99260.45
2023-09-16T02:20:42.275Z,99258.75
2023-09-16T02:25:44.210Z,99254.56
2023-09-16T02:30:50.094Z,99258.75
2023-09-16T02:35:51.939Z,99256.52
2023-09-16T02:40:53.787Z,99258.34
2023-09-16T02:45:57.395Z,99260.83
2023-09-16T02:50:59.363Z,99261.81
2023-09-16T02:56:01.254Z,99265.48
2023-09-16T03:01:12.490Z,99265.90
2023-09-16T03:06:16.768Z,99264.02
2023-09-16T03:11:19.135Z,99261.17
2023-09-16T03:16:24.798Z,99261.80
2023-09-16T03:21:29.282Z,99262.25
2023-09-16T03:26:37.815Z,99260.15
2023-09-16T03:31:40.174Z,99254.27
2023-09-16T03:36:46.445Z,99256.67
2023-09-16T03:41:48.344Z,99250.80
2023-09-16T03:46:50.524Z,99248.91
2023-09-16T03:51:52.868Z,99245.79
2023-09-16T03:56:55.037Z,99243.41
2023-09-16T04:01:57.250Z,99249.38
2023-09-16T04:06:59.481Z,99251.65
2023-09-16T04:12:04.065Z,99248.48
2023-09-16T04:17:05.996Z,99247.67
2023-09-16T04:22:08.020Z,99246.99
2023-09-16T04:27:10.102Z,99245.31
2023-09-16T04:32:12.828Z,99244.89
2023-09-16T04:37:15.390Z,99247.23
2023-09-16T04:42:17.346Z,99244.38
2023-09-16T04:47:20.739Z,99246.75
2023-09-16T04:52:24.782Z,99246.61
2023-09-16T04:57:27.091Z,99245.73
2023-09-16T05:02:33.791Z,99245.79
2023-09-16T05:07:36.276Z,99245.20
2023-09-16T05:12:38.432Z,99242.33
2023-09-16T05:17:41.511Z,99245.65
2023-09-16T05:22:48.398Z,99246.02
2023-09-16T05:27:51.283Z,99249.79
2023-09-16T05:32:53.369Z,99249.36
2023-09-16T05:37:55.853Z,99251.55
2023-09-16T05:42:58.017Z,99249.92
2023-09-16T05:48:04.702Z,99254.21
2023-09-16T05:53:14.145Z,99260.48
2023-09-16T05:58:16.154Z,99263.34
2023-09-16T06:03:18.455Z,99260.23
2023-09-16T06:08:21.071Z,99259.30
2023-09-16T06:13:23.931Z,99259.19
2023-09-16T06:18:28.043Z,99252.23
2023-09-16T06:23:30.377Z,99255.97
2023-09-16T06:28:34.565Z,99254.30
2023-09-16T06:33:37.147Z,99257.98
2023-09-16T06:38:39.648Z,99259.17
2023-09-16T06:43:41.617Z,99258.16
2023-09-16T06:48:46.632Z,99253.64
2023-09-16T06:53:48.566Z,99257.54
2023-09-16T06:58:51.110Z,99262.31
2023-09-16T07:03:53.291Z,99265.60
2023-09-16T07:08:55.136Z,99269.42
2023-09-16T07:13:57.038Z,99277.08
2023-09-16T07:18:58.887Z,99279.15
2023-09-16T07:24:02.703Z,99273.08
2023-09-16T07:29:04.590Z,99269.05
2023-09-16T07:34:06.436Z,99270.80
2023-09-16T07:39:08.312Z,99272.06
2023-09-16T07:44:10.143Z,99274.31
2023-09-16T07:49:12.034Z,99269.75
2023-09-16T07:54:17.046Z,99273.34
2023-09-16T07:59:21.547Z,99271.46
2023-09-16T08:04:23.636Z,99270.84
2023-09-16T08:09:26.108Z,99266.77
2023-09-16T08:14:28.008Z,99263.07
2023-09-16T08:19:32.794Z,99257.50
2023-09-16T08:24:38.176Z,99258.07
2023-09-16T08:29:39.975Z,99252.84
2023-09-16T08:34:41.833Z,99255.52
2023-09-16T08:39:44.095Z,99251.59
2023-09-16T08:44:51.605Z,99251.61
2023-09-16T08:49:56.732Z,99250.04
2023-09-16T08:54:59.470Z,99250.80
2023-09-16T09:00:02.185Z,99251.40
2023-09-16T09:05:07.648Z,99245.59
2023-09-16T09:10:14.036Z,99248.24
2023-09-16T09:15:16.803Z,99242.59
2023-09-16T09:20:24.721Z,99244.24
2023-09-16T09:25:28.356Z,99250.84
2023-09-16T09:30:32.710Z,99243.83
2023-09-16T09:35:34.586Z,99238.60
2023-09-16T09:40:36.715Z,99239.31
2023-09-16T09:45:41.592Z,99238.82
2023-09-16T09:50:43.507Z,99233.06
2023-09-16T09:55:45.549Z,99235.79
2023-09-16T10:00:48.976Z,99231.55
2023-09-16T10:05:52.206Z,99223.81
2023-09-16T10:10:55.533Z,99217.47
2023-09-16T10:16:01.695Z,99205.66
2023-09-16T10:21:03.841Z,99198.70
2023-09-16T10:26:05.825Z,99195.68
2023-09-16T10:31:08.174Z,99195.36
2023-09-16T10:36:12.016Z,99191.60
2023-09-16T10:41:17.523Z,99190.11
2023-09-16T10:46:22.080Z,99187.69
2023-09-16T10:51:25.961Z,99185.20
2023-09-16T10:56:33.658Z,99185.08
2023-09-16T11:01:41.053Z,99181.95
2023-09-16T11:06:50.217Z,99181.70
2023-09-16T11:11:52.960Z,99179.55
2023-09-16T11:16:57.735Z,99179.48
2023-09-16T11:21:59.847Z,99181.16
2023-09-16T11:27:02.228Z,99174.83
2023-09-16T11:32:04.401Z,99169.86
2023-09-16T11:37:11.369Z,99162.23
2023-09-16T11:42:14.243Z,99156.48
2023-09-16T11:47:17.950Z,99152.80
2023-09-16T11:52:19.785Z,99148.73
2023-09-16T11:57:22.054Z,99141.98
2023-09-16T12:02:24.162Z,99135.23
2023-09-16T12:07:26.481Z,99132.23
2023-09-16T12:12:29.176Z,99125.73
2023-09-16T12:17:31.189Z,99118.94
2023-09-16T12:22:33.012Z,99118.48
2023-09-16T12:27:35.104Z,99117.31
2023-09-16T12:32:38.050Z,99116.98
2023-09-16T12:37:40.502Z,99113.40
2023-09-16T12:42:43.270Z,99113.46
2023-09-16T12:47:45.769Z,99107.30
2023-09-16T12:52:48.687Z,99103.67
2023-09-16T12:57:52.858Z,99097.90
2023-09-16T13:02:54.996Z,99091.66
2023-09-16T13:07:59.342Z,99089.78
2023-09-16T13:13:01.791Z,99089.42
2023-09-16T13:18:05.541Z,99082.71
2023-09-16T13:23:10.211Z,99077.69
2023-09-16T13:28:15.105Z,99076.82
2023-09-16T13:33:17.376Z,99077.80
2023-09-16T13:38:19.335Z,99074.21
2023-09-16T13:43:21.266Z,99071.99
2023-09-16T13:48:24.477Z,99069.83
2023-09-16T13:53:26.789Z,99073.45
2023-09-16T13:58:28.937Z,99077.65
2023-09-16T14:03:31.277Z,99079.00
2023-09-16T14:08:33.257Z,99072.04
2023-09-16T14:13:35.234Z,99065.30
2023-09-16T14:18:37.282Z,99055.73
2023-09-16T14:23:39.137Z,99051.58
2023-09-16T14:28:41.189Z,99048.44
2023-09-16T14:33:43.140Z,99045.20
2023-09-16T14:38:45.076Z,99043.33
2023-09-16T14:43:46.954Z,99045.05
2023-09-16T14:48:49.147Z,99044.05
2023-09-16T14:53:51.745Z,99047.80
2023-09-16T14:58:53.592Z,99042.84
2023-09-16T15:03:55.583Z,99040.91
2023-09-16T15:08:57.496Z,99047.70
2023-09-16T15:13:59.359Z,99049.89
2023-09-16T15:19:01.332Z,99047.13
2023-09-16T15:24:03.176Z,99043.71
2023-09-16T15:29:05.314Z,99043.54
2023-09-16T15:34:07.175Z,99039.26
2023-09-16T15:39:09.126Z,99036.75
2023-09-16T15:44:11.038Z,99030.06
2023-09-16T15:49:13.060Z,99027.45
2023-09-16T15:54:14.974Z,99023.56
2023-09-16T15:59:16.966Z,99022.64
2023-09-16T16:04:19.475Z,99022.57
2023-09-16T16:09:22.675Z,99018.11
2023-09-16T16:14:24.707Z,99007.15
2023-09-16T16:19:26.687Z,99006.00
2023-09-16T16:24:28.554Z,99007.20
2023-09-16T16:29:30.904Z,99010.27
2023-09-16T16:34:32.799Z,99005.68
2023-09-16T16:39:35.358Z,99006.42
2023-09-16T16:44:37.145Z,99005.55
2023-09-16T16:49:39.863Z,99007.73
2023-09-16T16:54:41.806Z,99004.38
2023-09-16T16:59:44.193Z,99005.95
2023-09-16T17:04:46.041Z,99007.12
2023-09-16T17:09:48.043Z,99011.70
2023-09-16T17:14:49.933Z,99012.91
2023-09-16T17:19:53.937Z,99015.71
2023-09-16T17:24:55.817Z,99015.89
2023-09-16T17:29:57.773Z,99015.72
2023-09-16T17:35:01.001Z,99019.32
2023-09-16T17:40:06.812Z,99020.45
2023-09-16T17:45:09.107Z,99021.13
2023-09-16T17:50:11.119Z,99018.34
2023-09-16T17:55:13.702Z,99016.17
2023-09-16T18:00:15.743Z,99020.63
2023-09-16T18:05:20.683Z,99026.49
2023-09-16T18:10:22.712Z,99024.09
2023-09-16T18:15:27.447Z,99023.84
2023-09-16T18:20:29.708Z,99024.63
2023-09-16T18:25:32.807Z,99025.56
2023-09-16T18:30:34.700Z,99031.25
2023-09-16T18:35:38.846Z,99029.11
2023-09-16T18:40:41.223Z,99029.82
2023-09-16T18:45:43.617Z,99028.59
2023-09-16T18:50:45.737Z,99030.48
2023-09-16T18:55:48.046Z,99027.75
2023-09-16T19:00:50.342Z,99029.72
2023-09-16T19:05:52.429Z,99027.34
2023-09-16T19:10:54.287Z,99028.77
2023-09-16T19:15:59.940Z,99026.21
2023-09-16T19:21:01.891Z,99026.92
2023-09-16T19:26:04.566Z,99023.37
2023-09-16T19:31:06.448Z,99018.87
2023-09-16T19:36:08.332Z,99021.90
2023-09-16T19:41:10.191Z,99025.13
2023-09-16T19:46:12.664Z,99023.63
2023-09-16T19:51:14.681Z,99024.52
2023-09-16T19:56:16.774Z,99022.63
2023-09-16T20:01:18.668Z,99025.25
2023-09-16T20:06:20.590Z,99030.61
2023-09-16T20:11:22.472Z,99033.43
2023-09-16T20:16:26.220Z,99033.98
2023-09-16T20:21:28.787Z,99035.23
2023-09-16T20:26:31.748Z,99031.35
2023-09-16T20:31:34.204Z,99029.88
2023-09-16T20:36:36.372Z,99023.64
2023-09-16T20:41:38.283Z,99026.48
2023-09-16T20:46:41.005Z,99019.83
2023-09-16T20:51:42.877Z,99021.09
2023-09-16T20:56:44.735Z,99026.71
2023-09-16T21:01:47.723Z,99022.70
2023-09-16T21:06:51.156Z,99026.96
2023-09-16T21:11:58.059Z,99036.48
2023-09-16T21:16:59.960Z,99037.02
2023-09-16T21:22:01.812Z,99038.45
2023-09-16T21:27:04.395Z,99037.64
2023-09-16T21:32:06.390Z,99033.20
2023-09-16T21:37:08.531Z,99037.14
2023-09-16T21:42:10.649Z,99037.61
2023-09-16T21:47:17.890Z,99030.39
2023-09-16T21:52:19.995Z,99028.54
2023-09-16T21:57:21.796Z,99026.64
2023-09-16T22:02:24.094Z,99026.45
2023-09-16T22:07:26.062Z,99023.66
2023-09-16T22:12:27.907Z,99022.08
2023-09-16T22:17:29.727Z,99023.93
2023-09-16T22:22:32.630Z,99022.55
2023-09-16T22:27:38.368Z,99020.58
2023-09-16T22:32:40.359Z,99017.09
2023-09-16T22:37:42.800Z,99018.16
2023-09-16T22:42:44.625Z,99022.31
2023-09-16T22:47:46.567Z,99025.75
2023-09-16T22:52:48.532Z,99020.37
2023-09-16T22:57:50.437Z,99019.39
2023-09-16T23:02:52.585Z,99022.17
2023-09-16T23:07:55.869Z,99025.70
2023-09-16T23:13:03.750Z,99024.36
2023-09-16T23:18:05.796Z,99025.72
2023-09-16T23:23:08.917Z,99021.58
2023-09-16T23:28:10.783Z,99021.33
2023-09-16T23:33:13.779Z,99021.73
2023-09-16T23:38:15.657Z,99021.02
2023-09-16T23:43:17.518Z,99024.69
2023-09-16T23:48:19.395Z,99021.79
2023-09-16T23:53:21.254Z,99021.04
2023-09-16T23:58:23.121Z,99013.55
